sensor_id;sensor_type;location;lat;lon;timestamp;P1;durP1;ratioP1;P2;durP2;ratioP2
25435;SDS011;13363;52.772;-3.890;2024-01-11T00:00:48;2.70;;;2.10;;
25435;SDS011;13363;52.772;-3.890;2024-01-11T00:03:14;2.83;;;2.63;;
25435;SDS011;13363;52.772;-3.890;2024-01-11T00:05:41;2.93;;;2.73;;
25435;SDS011;13363;52.772;-3.890;2024-01-11T00:08:07;3.17;;;2.97;;
25435;SDS011;13363;52.772;-3.890;2024-01-11T00:10:33;3.60;;;3.40;;
25435;SDS011;13363;52.772;-3.890;2024-01-11T00:12:59;3.93;;;3.63;;
25435;SDS011;13363;52.772;-3.890;2024-01-11T00:15:25;3.47;;;3.27;;
25435;SDS011;13363;52.772;-3.890;2024-01-11T00:17:52;3.40;;;3.20;;
25435;SDS011;13363;52.772;-3.890;2024-01-11T00:20:18;3.77;;;3.57;;
25435;SDS011;13363;52.772;-3.890;2024-01-11T00:22:44;3.00;;;2.80;;
25435;SDS011;13363;52.772;-3.890;2024-01-11T00:25:10;3.73;;;3.00;;
25435;SDS011;13363;52.772;-3.890;2024-01-11T00:27:36;2.90;;;2.80;;
25435;SDS011;13363;52.772;-3.890;2024-01-11T00:30:03;3.07;;;2.93;;
25435;SDS011;13363;52.772;-3.890;2024-01-11T00:32:29;2.80;;;2.70;;
25435;SDS011;13363;52.772;-3.890;2024-01-11T00:34:55;2.80;;;2.70;;
25435;SDS011;13363;52.772;-3.890;2024-01-11T00:37:21;2.70;;;2.60;;
25435;SDS011;13363;52.772;-3.890;2024-01-11T00:39:47;2.60;;;2.50;;
25435;SDS011;13363;52.772;-3.890;2024-01-11T00:42:13;2.50;;;2.40;;
25435;SDS011;13363;52.772;-3.890;2024-01-11T00:44:39;2.63;;;2.53;;
25435;SDS011;13363;52.772;-3.890;2024-01-11T00:47:06;1.87;;;1.87;;
25435;SDS011;13363;52.772;-3.890;2024-01-11T00:49:32;1.93;;;1.90;;
25435;SDS011;13363;52.772;-3.890;2024-01-11T00:51:58;2.10;;;2.00;;
25435;SDS011;13363;52.772;-3.890;2024-01-11T00:54:24;2.00;;;1.90;;
25435;SDS011;13363;52.772;-3.890;2024-01-11T00:56:50;1.63;;;1.63;;
25435;SDS011;13363;52.772;-3.890;2024-01-11T00:59:16;1.70;;;1.60;;
25435;SDS011;13363;52.772;-3.890;2024-01-11T01:01:49;1.60;;;1.50;;
25435;SDS011;13363;52.772;-3.890;2024-01-11T01:04:15;1.30;;;1.30;;
25435;SDS011;13363;52.772;-3.890;2024-01-11T01:06:41;1.10;;;1.10;;
25435;SDS011;13363;52.772;-3.890;2024-01-11T01:09:08;1.27;;;1.17;;
25435;SDS011;13363;52.772;-3.890;2024-01-11T01:11:34;1.23;;;1.20;;
25435;SDS011;13363;52.772;-3.890;2024-01-11T01:14:00;1.10;;;1.10;;
25435;SDS011;13363;52.772;-3.890;2024-01-11T01:16:27;1.40;;;1.40;;
25435;SDS011;13363;52.772;-3.890;2024-01-11T01:18:53;1.30;;;1.30;;
25435;SDS011;13363;52.772;-3.890;2024-01-11T01:21:19;1.30;;;1.23;;
25435;SDS011;13363;52.772;-3.890;2024-01-11T01:23:45;1.23;;;1.20;;
25435;SDS011;13363;52.772;-3.890;2024-01-11T01:26:11;2.13;;;1.40;;
25435;SDS011;13363;52.772;-3.890;2024-01-11T01:28:37;2.07;;;1.10;;
25435;SDS011;13363;52.772;-3.890;2024-01-11T01:31:05;1.30;;;1.30;;
25435;SDS011;13363;52.772;-3.890;2024-01-11T01:33:31;1.40;;;1.30;;
25435;SDS011;13363;52.772;-3.890;2024-01-11T01:35:57;1.63;;;1.10;;
25435;SDS011;13363;52.772;-3.890;2024-01-11T01:38:23;1.40;;;1.37;;
25435;SDS011;13363;52.772;-3.890;2024-01-11T01:40:49;1.10;;;1.10;;
25435;SDS011;13363;52.772;-3.890;2024-01-11T01:43:16;1.30;;;1.30;;
25435;SDS011;13363;52.772;-3.890;2024-01-11T01:45:42;5.17;;;1.40;;
25435;SDS011;13363;52.772;-3.890;2024-01-11T01:48:08;1.20;;;1.20;;
25435;SDS011;13363;52.772;-3.890;2024-01-11T01:50:34;1.60;;;1.07;;
25435;SDS011;13363;52.772;-3.890;2024-01-11T01:53:00;1.83;;;1.13;;
25435;SDS011;13363;52.772;-3.890;2024-01-11T01:55:27;0.90;;;0.90;;
25435;SDS011;13363;52.772;-3.890;2024-01-11T01:57:53;1.17;;;1.10;;
25435;SDS011;13363;52.772;-3.890;2024-01-11T02:00:20;0.97;;;0.90;;
25435;SDS011;13363;52.772;-3.890;2024-01-11T02:02:47;1.97;;;1.10;;
25435;SDS011;13363;52.772;-3.890;2024-01-11T02:05:16;2.43;;;1.37;;
25435;SDS011;13363;52.772;-3.890;2024-01-11T02:07:42;2.73;;;1.47;;
25435;SDS011;13363;52.772;-3.890;2024-01-11T02:10:09;3.93;;;1.10;;
25435;SDS011;13363;52.772;-3.890;2024-01-11T02:12:36;1.27;;;1.17;;
25435;SDS011;13363;52.772;-3.890;2024-01-11T02:15:05;2.53;;;1.47;;
25435;SDS011;13363;52.772;-3.890;2024-01-11T02:17:31;1.43;;;0.90;;
25435;SDS011;13363;52.772;-3.890;2024-01-11T02:19:58;1.00;;;0.87;;
25435;SDS011;13363;52.772;-3.890;2024-01-11T02:22:26;1.37;;;1.03;;
25435;SDS011;13363;52.772;-3.890;2024-01-11T02:24:55;2.43;;;1.07;;
25435;SDS011;13363;52.772;-3.890;2024-01-11T02:27:22;1.03;;;1.03;;
25435;SDS011;13363;52.772;-3.890;2024-01-11T02:29:49;1.13;;;1.00;;
25435;SDS011;13363;52.772;-3.890;2024-01-11T02:32:15;1.03;;;0.80;;
25435;SDS011;13363;52.772;-3.890;2024-01-11T02:34:41;1.40;;;1.30;;
25435;SDS011;13363;52.772;-3.890;2024-01-11T02:37:08;2.37;;;1.10;;
25435;SDS011;13363;52.772;-3.890;2024-01-11T02:39:34;2.17;;;1.20;;
25435;SDS011;13363;52.772;-3.890;2024-01-11T02:42:01;1.50;;;1.40;;
25435;SDS011;13363;52.772;-3.890;2024-01-11T02:44:27;3.07;;;1.87;;
25435;SDS011;13363;52.772;-3.890;2024-01-11T02:46:53;2.17;;;1.20;;
25435;SDS011;13363;52.772;-3.890;2024-01-11T02:49:19;3.20;;;1.50;;
25435;SDS011;13363;52.772;-3.890;2024-01-11T02:51:45;2.67;;;1.30;;
25435;SDS011;13363;52.772;-3.890;2024-01-11T02:54:11;2.83;;;1.37;;
25435;SDS011;13363;52.772;-3.890;2024-01-11T02:56:38;2.43;;;1.50;;
25435;SDS011;13363;52.772;-3.890;2024-01-11T02:59:04;3.23;;;1.30;;
25435;SDS011;13363;52.772;-3.890;2024-01-11T03:01:30;1.47;;;1.33;;
25435;SDS011;13363;52.772;-3.890;2024-01-11T03:03:57;2.13;;;1.43;;
25435;SDS011;13363;52.772;-3.890;2024-01-11T03:06:24;4.43;;;1.43;;
25435;SDS011;13363;52.772;-3.890;2024-01-11T03:08:50;3.57;;;1.40;;
25435;SDS011;13363;52.772;-3.890;2024-01-11T03:11:16;1.60;;;1.50;;
25435;SDS011;13363;52.772;-3.890;2024-01-11T03:13:42;1.70;;;1.17;;
25435;SDS011;13363;52.772;-3.890;2024-01-11T03:16:08;1.77;;;1.67;;
25435;SDS011;13363;52.772;-3.890;2024-01-11T03:18:35;1.63;;;1.50;;
25435;SDS011;13363;52.772;-3.890;2024-01-11T03:21:01;3.17;;;1.17;;
25435;SDS011;13363;52.772;-3.890;2024-01-11T03:23:27;3.10;;;1.27;;
25435;SDS011;13363;52.772;-3.890;2024-01-11T03:25:53;1.50;;;1.40;;
25435;SDS011;13363;52.772;-3.890;2024-01-11T03:28:19;1.93;;;1.50;;
25435;SDS011;13363;52.772;-3.890;2024-01-11T03:30:45;3.63;;;1.20;;
25435;SDS011;13363;52.772;-3.890;2024-01-11T03:33:11;3.00;;;1.40;;
25435;SDS011;13363;52.772;-3.890;2024-01-11T03:35:37;1.80;;;1.43;;
25435;SDS011;13363;52.772;-3.890;2024-01-11T03:38:05;2.17;;;1.57;;
25435;SDS011;13363;52.772;-3.890;2024-01-11T03:40:31;4.67;;;1.57;;
25435;SDS011;13363;52.772;-3.890;2024-01-11T03:42:57;3.60;;;1.67;;
25435;SDS011;13363;52.772;-3.890;2024-01-11T03:45:24;3.70;;;1.50;;
25435;SDS011;13363;52.772;-3.890;2024-01-11T03:47:50;4.00;;;1.73;;
25435;SDS011;13363;52.772;-3.890;2024-01-11T03:50:16;3.23;;;1.70;;
25435;SDS011;13363;52.772;-3.890;2024-01-11T03:52:44;1.80;;;1.63;;
25435;SDS011;13363;52.772;-3.890;2024-01-11T03:55:11;2.37;;;1.57;;
25435;SDS011;13363;52.772;-3.890;2024-01-11T03:57:37;1.57;;;1.43;;
25435;SDS011;13363;52.772;-3.890;2024-01-11T04:00:03;1.73;;;1.50;;
25435;SDS011;13363;52.772;-3.890;2024-01-11T04:02:31;4.10;;;1.57;;
25435;SDS011;13363;52.772;-3.890;2024-01-11T04:04:57;3.80;;;1.40;;
25435;SDS011;13363;52.772;-3.890;2024-01-11T04:07:23;2.30;;;1.40;;
25435;SDS011;13363;52.772;-3.890;2024-01-11T04:09:49;2.70;;;1.17;;
25435;SDS011;13363;52.772;-3.890;2024-01-11T04:12:15;2.33;;;1.40;;
25435;SDS011;13363;52.772;-3.890;2024-01-11T04:14:41;3.13;;;1.40;;
25435;SDS011;13363;52.772;-3.890;2024-01-11T04:17:08;1.53;;;1.00;;
25435;SDS011;13363;52.772;-3.890;2024-01-11T04:19:34;2.90;;;1.37;;
25435;SDS011;13363;52.772;-3.890;2024-01-11T04:22:00;3.40;;;1.40;;
25435;SDS011;13363;52.772;-3.890;2024-01-11T04:24:26;1.10;;;1.00;;
25435;SDS011;13363;52.772;-3.890;2024-01-11T04:26:52;2.83;;;1.50;;
25435;SDS011;13363;52.772;-3.890;2024-01-11T04:29:18;2.40;;;1.10;;
25435;SDS011;13363;52.772;-3.890;2024-01-11T04:31:44;4.50;;;1.17;;
25435;SDS011;13363;52.772;-3.890;2024-01-11T04:34:11;4.37;;;1.60;;
25435;SDS011;13363;52.772;-3.890;2024-01-11T04:36:37;2.10;;;1.40;;
25435;SDS011;13363;52.772;-3.890;2024-01-11T04:39:04;3.17;;;1.30;;
25435;SDS011;13363;52.772;-3.890;2024-01-11T04:41:32;0.83;;;0.83;;
25435;SDS011;13363;52.772;-3.890;2024-01-11T04:43:59;2.43;;;1.33;;
25435;SDS011;13363;52.772;-3.890;2024-01-11T04:46:25;2.33;;;1.23;;
25435;SDS011;13363;52.772;-3.890;2024-01-11T04:48:51;2.43;;;1.53;;
25435;SDS011;13363;52.772;-3.890;2024-01-11T04:51:19;2.90;;;1.40;;
25435;SDS011;13363;52.772;-3.890;2024-01-11T04:53:45;5.03;;;1.50;;
25435;SDS011;13363;52.772;-3.890;2024-01-11T04:56:13;3.97;;;1.50;;
25435;SDS011;13363;52.772;-3.890;2024-01-11T04:58:40;1.67;;;1.17;;
25435;SDS011;13363;52.772;-3.890;2024-01-11T05:01:06;1.97;;;1.87;;
25435;SDS011;13363;52.772;-3.890;2024-01-11T05:03:33;5.30;;;1.63;;
25435;SDS011;13363;52.772;-3.890;2024-01-11T05:05:59;5.27;;;1.50;;
25435;SDS011;13363;52.772;-3.890;2024-01-11T05:08:26;4.70;;;1.60;;
25435;SDS011;13363;52.772;-3.890;2024-01-11T05:10:53;2.50;;;1.43;;
25435;SDS011;13363;52.772;-3.890;2024-01-11T05:13:19;1.90;;;1.40;;
25435;SDS011;13363;52.772;-3.890;2024-01-11T05:15:45;1.67;;;1.40;;
25435;SDS011;13363;52.772;-3.890;2024-01-11T05:18:12;1.57;;;1.37;;
25435;SDS011;13363;52.772;-3.890;2024-01-11T05:20:38;4.10;;;1.60;;
25435;SDS011;13363;52.772;-3.890;2024-01-11T05:23:05;5.13;;;1.70;;
25435;SDS011;13363;52.772;-3.890;2024-01-11T05:25:31;4.40;;;1.50;;
25435;SDS011;13363;52.772;-3.890;2024-01-11T05:28:01;1.90;;;1.63;;
25435;SDS011;13363;52.772;-3.890;2024-01-11T05:30:28;3.00;;;1.60;;
25435;SDS011;13363;52.772;-3.890;2024-01-11T05:32:54;4.20;;;1.60;;
25435;SDS011;13363;52.772;-3.890;2024-01-11T05:35:21;2.03;;;1.80;;
25435;SDS011;13363;52.772;-3.890;2024-01-11T05:37:49;1.40;;;1.27;;
25435;SDS011;13363;52.772;-3.890;2024-01-11T05:40:16;6.17;;;1.50;;
25435;SDS011;13363;52.772;-3.890;2024-01-11T05:42:42;1.93;;;1.20;;
25435;SDS011;13363;52.772;-3.890;2024-01-11T05:45:08;2.83;;;1.30;;
25435;SDS011;13363;52.772;-3.890;2024-01-11T05:47:34;2.37;;;1.30;;
25435;SDS011;13363;52.772;-3.890;2024-01-11T05:50:00;3.73;;;1.40;;
25435;SDS011;13363;52.772;-3.890;2024-01-11T05:52:27;0.97;;;0.90;;
25435;SDS011;13363;52.772;-3.890;2024-01-11T05:54:53;3.50;;;1.43;;
25435;SDS011;13363;52.772;-3.890;2024-01-11T05:57:19;1.90;;;1.20;;
25435;SDS011;13363;52.772;-3.890;2024-01-11T05:59:45;1.87;;;1.27;;
25435;SDS011;13363;52.772;-3.890;2024-01-11T06:02:12;4.80;;;1.20;;
25435;SDS011;13363;52.772;-3.890;2024-01-11T06:04:38;1.43;;;1.10;;
25435;SDS011;13363;52.772;-3.890;2024-01-11T06:07:05;1.30;;;1.20;;
25435;SDS011;13363;52.772;-3.890;2024-01-11T06:09:31;1.20;;;1.10;;
25435;SDS011;13363;52.772;-3.890;2024-01-11T06:11:58;0.70;;;0.70;;
25435;SDS011;13363;52.772;-3.890;2024-01-11T06:14:24;1.90;;;1.23;;
25435;SDS011;13363;52.772;-3.890;2024-01-11T06:16:50;1.67;;;1.30;;
25435;SDS011;13363;52.772;-3.890;2024-01-11T06:19:16;3.07;;;1.47;;
25435;SDS011;13363;52.772;-3.890;2024-01-11T06:21:43;1.43;;;1.23;;
25435;SDS011;13363;52.772;-3.890;2024-01-11T06:24:09;3.20;;;0.87;;
25435;SDS011;13363;52.772;-3.890;2024-01-11T06:26:35;2.27;;;1.50;;
25435;SDS011;13363;52.772;-3.890;2024-01-11T06:29:01;3.40;;;1.27;;
25435;SDS011;13363;52.772;-3.890;2024-01-11T06:31:27;3.93;;;1.07;;
25435;SDS011;13363;52.772;-3.890;2024-01-11T06:33:53;5.10;;;0.90;;
25435;SDS011;13363;52.772;-3.890;2024-01-11T06:36:20;1.27;;;1.10;;
25435;SDS011;13363;52.772;-3.890;2024-01-11T06:38:46;2.20;;;1.10;;
25435;SDS011;13363;52.772;-3.890;2024-01-11T06:41:12;1.03;;;1.03;;
25435;SDS011;13363;52.772;-3.890;2024-01-11T06:43:38;2.03;;;1.20;;
25435;SDS011;13363;52.772;-3.890;2024-01-11T06:46:05;1.13;;;1.07;;
25435;SDS011;13363;52.772;-3.890;2024-01-11T06:48:31;1.10;;;1.10;;
25435;SDS011;13363;52.772;-3.890;2024-01-11T06:50:58;1.40;;;1.30;;
25435;SDS011;13363;52.772;-3.890;2024-01-11T06:53:24;0.83;;;0.83;;
25435;SDS011;13363;52.772;-3.890;2024-01-11T06:55:50;2.23;;;1.20;;
25435;SDS011;13363;52.772;-3.890;2024-01-11T06:58:20;2.30;;;0.90;;
25435;SDS011;13363;52.772;-3.890;2024-01-11T07:00:49;2.07;;;1.70;;
25435;SDS011;13363;52.772;-3.890;2024-01-11T07:03:15;1.50;;;0.97;;
25435;SDS011;13363;52.772;-3.890;2024-01-11T07:05:41;0.77;;;0.77;;
25435;SDS011;13363;52.772;-3.890;2024-01-11T07:08:07;1.40;;;1.30;;
25435;SDS011;13363;52.772;-3.890;2024-01-11T07:10:33;2.73;;;1.10;;
25435;SDS011;13363;52.772;-3.890;2024-01-11T07:13:00;1.30;;;1.30;;
25435;SDS011;13363;52.772;-3.890;2024-01-11T07:15:26;5.43;;;1.20;;
25435;SDS011;13363;52.772;-3.890;2024-01-11T07:17:53;1.70;;;1.13;;
25435;SDS011;13363;52.772;-3.890;2024-01-11T07:20:19;2.67;;;1.33;;
25435;SDS011;13363;52.772;-3.890;2024-01-11T07:22:45;2.83;;;1.10;;
25435;SDS011;13363;52.772;-3.890;2024-01-11T07:25:11;1.30;;;1.20;;
25435;SDS011;13363;52.772;-3.890;2024-01-11T07:27:39;3.27;;;1.40;;
25435;SDS011;13363;52.772;-3.890;2024-01-11T07:30:05;1.30;;;1.00;;
25435;SDS011;13363;52.772;-3.890;2024-01-11T07:32:31;3.73;;;1.57;;
25435;SDS011;13363;52.772;-3.890;2024-01-11T07:34:58;4.33;;;1.20;;
25435;SDS011;13363;52.772;-3.890;2024-01-11T07:37:24;1.50;;;1.10;;
25435;SDS011;13363;52.772;-3.890;2024-01-11T07:39:51;4.23;;;1.23;;
25435;SDS011;13363;52.772;-3.890;2024-01-11T07:42:17;3.70;;;1.00;;
25435;SDS011;13363;52.772;-3.890;2024-01-11T07:44:44;1.97;;;1.30;;
25435;SDS011;13363;52.772;-3.890;2024-01-11T07:47:10;1.23;;;0.90;;
25435;SDS011;13363;52.772;-3.890;2024-01-11T07:49:36;3.20;;;1.00;;
25435;SDS011;13363;52.772;-3.890;2024-01-11T07:52:03;1.47;;;1.03;;
25435;SDS011;13363;52.772;-3.890;2024-01-11T07:54:29;1.53;;;0.90;;
25435;SDS011;13363;52.772;-3.890;2024-01-11T07:56:56;1.83;;;1.20;;
25435;SDS011;13363;52.772;-3.890;2024-01-11T07:59:22;0.90;;;0.90;;
25435;SDS011;13363;52.772;-3.890;2024-01-11T08:01:48;2.83;;;0.93;;
25435;SDS011;13363;52.772;-3.890;2024-01-11T08:04:15;1.27;;;0.97;;
25435;SDS011;13363;52.772;-3.890;2024-01-11T08:06:41;1.07;;;1.03;;
25435;SDS011;13363;52.772;-3.890;2024-01-11T08:09:08;2.83;;;1.60;;
25435;SDS011;13363;52.772;-3.890;2024-01-11T08:11:35;1.40;;;0.77;;
25435;SDS011;13363;52.772;-3.890;2024-01-11T08:14:01;1.10;;;1.10;;
25435;SDS011;13363;52.772;-3.890;2024-01-11T08:16:28;2.40;;;1.10;;
25435;SDS011;13363;52.772;-3.890;2024-01-11T08:18:54;2.33;;;1.20;;
25435;SDS011;13363;52.772;-3.890;2024-01-11T08:21:20;3.07;;;0.90;;
25435;SDS011;13363;52.772;-3.890;2024-01-11T08:23:46;1.00;;;1.00;;
25435;SDS011;13363;52.772;-3.890;2024-01-11T08:26:14;0.93;;;0.90;;
25435;SDS011;13363;52.772;-3.890;2024-01-11T08:28:41;3.57;;;1.10;;
25435;SDS011;13363;52.772;-3.890;2024-01-11T08:31:07;0.90;;;0.90;;
25435;SDS011;13363;52.772;-3.890;2024-01-11T08:33:34;0.73;;;0.73;;
25435;SDS011;13363;52.772;-3.890;2024-01-11T08:36:02;1.60;;;1.03;;
25435;SDS011;13363;52.772;-3.890;2024-01-11T08:38:29;2.03;;;0.83;;
25435;SDS011;13363;52.772;-3.890;2024-01-11T08:40:55;2.00;;;1.00;;
25435;SDS011;13363;52.772;-3.890;2024-01-11T08:43:21;1.73;;;1.30;;
25435;SDS011;13363;52.772;-3.890;2024-01-11T08:45:47;2.20;;;0.93;;
25435;SDS011;13363;52.772;-3.890;2024-01-11T08:48:13;2.57;;;1.30;;
25435;SDS011;13363;52.772;-3.890;2024-01-11T08:50:40;3.90;;;1.10;;
25435;SDS011;13363;52.772;-3.890;2024-01-11T08:53:06;2.80;;;1.30;;
25435;SDS011;13363;52.772;-3.890;2024-01-11T08:55:32;3.27;;;1.20;;
25435;SDS011;13363;52.772;-3.890;2024-01-11T08:57:59;1.63;;;1.23;;
25435;SDS011;13363;52.772;-3.890;2024-01-11T09:00:26;2.70;;;1.20;;
25435;SDS011;13363;52.772;-3.890;2024-01-11T09:02:52;5.40;;;1.00;;
25435;SDS011;13363;52.772;-3.890;2024-01-11T09:05:18;1.03;;;1.03;;
25435;SDS011;13363;52.772;-3.890;2024-01-11T09:07:46;4.37;;;1.03;;
25435;SDS011;13363;52.772;-3.890;2024-01-11T09:10:12;1.50;;;1.30;;
25435;SDS011;13363;52.772;-3.890;2024-01-11T09:12:38;3.00;;;1.20;;
25435;SDS011;13363;52.772;-3.890;2024-01-11T09:15:05;2.30;;;1.30;;
25435;SDS011;13363;52.772;-3.890;2024-01-11T09:17:31;1.43;;;1.10;;
25435;SDS011;13363;52.772;-3.890;2024-01-11T09:19:57;1.10;;;1.10;;
25435;SDS011;13363;52.772;-3.890;2024-01-11T09:22:23;1.30;;;1.20;;
25435;SDS011;13363;52.772;-3.890;2024-01-11T09:24:51;2.13;;;1.30;;
25435;SDS011;13363;52.772;-3.890;2024-01-11T09:27:18;1.27;;;1.00;;
25435;SDS011;13363;52.772;-3.890;2024-01-11T09:29:44;1.67;;;1.00;;
25435;SDS011;13363;52.772;-3.890;2024-01-11T09:32:11;3.17;;;1.30;;
25435;SDS011;13363;52.772;-3.890;2024-01-11T09:34:37;1.73;;;1.10;;
25435;SDS011;13363;52.772;-3.890;2024-01-11T09:37:04;0.80;;;0.80;;
25435;SDS011;13363;52.772;-3.890;2024-01-11T09:39:30;1.87;;;1.20;;
25435;SDS011;13363;52.772;-3.890;2024-01-11T09:41:58;1.00;;;0.83;;
25435;SDS011;13363;52.772;-3.890;2024-01-11T09:44:25;2.90;;;1.30;;
25435;SDS011;13363;52.772;-3.890;2024-01-11T09:46:52;1.63;;;0.90;;
25435;SDS011;13363;52.772;-3.890;2024-01-11T09:49:21;2.20;;;1.17;;
25435;SDS011;13363;52.772;-3.890;2024-01-11T09:51:48;1.97;;;1.30;;
25435;SDS011;13363;52.772;-3.890;2024-01-11T09:54:18;1.57;;;1.00;;
25435;SDS011;13363;52.772;-3.890;2024-01-11T09:56:46;1.23;;;1.20;;
25435;SDS011;13363;52.772;-3.890;2024-01-11T09:59:16;2.07;;;1.17;;
25435;SDS011;13363;52.772;-3.890;2024-01-11T10:01:43;2.33;;;1.00;;
25435;SDS011;13363;52.772;-3.890;2024-01-11T10:04:09;2.90;;;1.30;;
25435;SDS011;13363;52.772;-3.890;2024-01-11T10:06:37;0.83;;;0.83;;
25435;SDS011;13363;52.772;-3.890;2024-01-11T10:09:04;3.07;;;1.20;;
25435;SDS011;13363;52.772;-3.890;2024-01-11T10:11:30;2.87;;;1.43;;
25435;SDS011;13363;52.772;-3.890;2024-01-11T10:13:56;2.90;;;1.30;;
25435;SDS011;13363;52.772;-3.890;2024-01-11T10:16:27;2.93;;;0.90;;
25435;SDS011;13363;52.772;-3.890;2024-01-11T10:18:54;2.43;;;1.30;;
25435;SDS011;13363;52.772;-3.890;2024-01-11T10:21:21;1.10;;;1.00;;
25435;SDS011;13363;52.772;-3.890;2024-01-11T10:23:49;0.83;;;0.77;;
25435;SDS011;13363;52.772;-3.890;2024-01-11T10:26:18;1.47;;;0.90;;
25435;SDS011;13363;52.772;-3.890;2024-01-11T10:28:46;4.40;;;1.10;;
25435;SDS011;13363;52.772;-3.890;2024-01-11T10:31:13;1.13;;;0.97;;
25435;SDS011;13363;52.772;-3.890;2024-01-11T10:33:44;2.40;;;1.00;;
25435;SDS011;13363;52.772;-3.890;2024-01-11T10:36:11;3.40;;;1.00;;
25435;SDS011;13363;52.772;-3.890;2024-01-11T10:38:38;2.00;;;1.03;;
25435;SDS011;13363;52.772;-3.890;2024-01-11T10:41:05;1.03;;;0.90;;
25435;SDS011;13363;52.772;-3.890;2024-01-11T10:43:37;1.40;;;0.97;;
25435;SDS011;13363;52.772;-3.890;2024-01-11T10:46:05;0.80;;;0.80;;
25435;SDS011;13363;52.772;-3.890;2024-01-11T10:48:42;1.60;;;0.77;;
25435;SDS011;13363;52.772;-3.890;2024-01-11T10:51:09;1.00;;;0.90;;
25435;SDS011;13363;52.772;-3.890;2024-01-11T10:56:06;0.80;;;0.77;;
25435;SDS011;13363;52.772;-3.890;2024-01-11T10:58:34;1.23;;;0.70;;
25435;SDS011;13363;52.772;-3.890;2024-01-11T11:01:01;1.57;;;1.33;;
25435;SDS011;13363;52.772;-3.890;2024-01-11T11:03:30;1.70;;;0.83;;
25435;SDS011;13363;52.772;-3.890;2024-01-11T11:05:59;1.13;;;0.67;;
25435;SDS011;13363;52.772;-3.890;2024-01-11T11:08:26;2.17;;;1.00;;
25435;SDS011;13363;52.772;-3.890;2024-01-11T11:10:56;0.93;;;0.80;;
25435;SDS011;13363;52.772;-3.890;2024-01-11T11:13:24;1.60;;;0.87;;
25435;SDS011;13363;52.772;-3.890;2024-01-11T11:15:53;3.77;;;0.93;;
25435;SDS011;13363;52.772;-3.890;2024-01-11T11:18:20;2.43;;;1.10;;
25435;SDS011;13363;52.772;-3.890;2024-01-11T11:20:46;1.60;;;1.00;;
25435;SDS011;13363;52.772;-3.890;2024-01-11T11:23:16;1.37;;;1.23;;
25435;SDS011;13363;52.772;-3.890;2024-01-11T11:25:44;0.70;;;0.70;;
25435;SDS011;13363;52.772;-3.890;2024-01-11T11:28:11;0.93;;;0.93;;
25435;SDS011;13363;52.772;-3.890;2024-01-11T11:30:38;2.30;;;1.10;;
25435;SDS011;13363;52.772;-3.890;2024-01-11T11:35:48;1.20;;;0.83;;
25435;SDS011;13363;52.772;-3.890;2024-01-11T11:38:18;2.07;;;1.00;;
25435;SDS011;13363;52.772;-3.890;2024-01-11T11:40:46;1.67;;;1.00;;
25435;SDS011;13363;52.772;-3.890;2024-01-11T11:43:15;1.10;;;1.00;;
25435;SDS011;13363;52.772;-3.890;2024-01-11T11:45:41;0.87;;;0.87;;
25435;SDS011;13363;52.772;-3.890;2024-01-11T11:51:09;1.00;;;1.00;;
25435;SDS011;13363;52.772;-3.890;2024-01-11T11:53:36;1.47;;;0.80;;
25435;SDS011;13363;52.772;-3.890;2024-01-11T11:56:02;2.37;;;1.23;;
25435;SDS011;13363;52.772;-3.890;2024-01-11T11:58:29;1.90;;;0.80;;
25435;SDS011;13363;52.772;-3.890;2024-01-11T12:01:00;0.83;;;0.83;;
25435;SDS011;13363;52.772;-3.890;2024-01-11T12:03:30;1.93;;;1.10;;
25435;SDS011;13363;52.772;-3.890;2024-01-11T12:05:57;2.23;;;1.00;;
25435;SDS011;13363;52.772;-3.890;2024-01-11T12:08:24;2.77;;;1.10;;
25435;SDS011;13363;52.772;-3.890;2024-01-11T12:10:50;0.70;;;0.70;;
25435;SDS011;13363;52.772;-3.890;2024-01-11T12:13:20;2.50;;;1.03;;
25435;SDS011;13363;52.772;-3.890;2024-01-11T12:15:46;2.10;;;1.10;;
25435;SDS011;13363;52.772;-3.890;2024-01-11T12:18:14;1.03;;;1.00;;
25435;SDS011;13363;52.772;-3.890;2024-01-11T12:20:42;1.57;;;1.10;;
25435;SDS011;13363;52.772;-3.890;2024-01-11T12:23:08;1.50;;;1.40;;
25435;SDS011;13363;52.772;-3.890;2024-01-11T12:25:35;1.50;;;1.40;;
25435;SDS011;13363;52.772;-3.890;2024-01-11T12:28:01;1.80;;;1.40;;
25435;SDS011;13363;52.772;-3.890;2024-01-11T12:30:27;1.30;;;1.30;;
25435;SDS011;13363;52.772;-3.890;2024-01-11T12:32:56;1.37;;;1.27;;
25435;SDS011;13363;52.772;-3.890;2024-01-11T12:35:23;1.90;;;1.70;;
25435;SDS011;13363;52.772;-3.890;2024-01-11T12:37:58;2.13;;;1.70;;
25435;SDS011;13363;52.772;-3.890;2024-01-11T12:40:25;1.80;;;1.70;;
25435;SDS011;13363;52.772;-3.890;2024-01-11T12:42:56;1.80;;;1.70;;
25435;SDS011;13363;52.772;-3.890;2024-01-11T12:45:23;1.80;;;1.70;;
25435;SDS011;13363;52.772;-3.890;2024-01-11T12:47:51;1.97;;;1.63;;
25435;SDS011;13363;52.772;-3.890;2024-01-11T12:50:19;1.90;;;1.80;;
25435;SDS011;13363;52.772;-3.890;2024-01-11T12:52:46;3.33;;;1.70;;
25435;SDS011;13363;52.772;-3.890;2024-01-11T12:55:18;1.60;;;1.50;;
25435;SDS011;13363;52.772;-3.890;2024-01-11T12:57:45;1.73;;;1.63;;
25435;SDS011;13363;52.772;-3.890;2024-01-11T13:00:11;1.13;;;1.13;;
25435;SDS011;13363;52.772;-3.890;2024-01-11T13:02:38;1.57;;;1.57;;
25435;SDS011;13363;52.772;-3.890;2024-01-11T13:05:05;1.80;;;1.70;;
25435;SDS011;13363;52.772;-3.890;2024-01-11T13:07:36;1.57;;;1.50;;
25435;SDS011;13363;52.772;-3.890;2024-01-11T13:10:02;1.47;;;1.43;;
25435;SDS011;13363;52.772;-3.890;2024-01-11T13:12:31;1.57;;;1.50;;
25435;SDS011;13363;52.772;-3.890;2024-01-11T13:14:58;1.80;;;1.70;;
25435;SDS011;13363;52.772;-3.890;2024-01-11T13:17:24;1.60;;;1.60;;
25435;SDS011;13363;52.772;-3.890;2024-01-11T13:19:52;1.50;;;1.40;;
25435;SDS011;13363;52.772;-3.890;2024-01-11T13:22:18;2.17;;;1.77;;
25435;SDS011;13363;52.772;-3.890;2024-01-11T13:24:44;2.00;;;1.90;;
25435;SDS011;13363;52.772;-3.890;2024-01-11T13:27:11;1.87;;;1.77;;
25435;SDS011;13363;52.772;-3.890;2024-01-11T13:29:37;1.30;;;1.30;;
25435;SDS011;13363;52.772;-3.890;2024-01-11T13:32:03;1.83;;;1.73;;
25435;SDS011;13363;52.772;-3.890;2024-01-11T13:34:29;1.83;;;1.73;;
25435;SDS011;13363;52.772;-3.890;2024-01-11T13:36:56;1.43;;;1.43;;
25435;SDS011;13363;52.772;-3.890;2024-01-11T13:39:24;1.43;;;1.43;;
25435;SDS011;13363;52.772;-3.890;2024-01-11T13:41:51;1.80;;;1.70;;
25435;SDS011;13363;52.772;-3.890;2024-01-11T13:44:17;1.87;;;1.60;;
25435;SDS011;13363;52.772;-3.890;2024-01-11T13:46:43;1.43;;;1.33;;
25435;SDS011;13363;52.772;-3.890;2024-01-11T13:49:09;1.60;;;1.50;;
25435;SDS011;13363;52.772;-3.890;2024-01-11T13:51:35;1.23;;;1.23;;
25435;SDS011;13363;52.772;-3.890;2024-01-11T13:54:02;1.23;;;1.23;;
25435;SDS011;13363;52.772;-3.890;2024-01-11T13:56:28;1.50;;;1.40;;
25435;SDS011;13363;52.772;-3.890;2024-01-11T13:58:55;1.53;;;1.43;;
25435;SDS011;13363;52.772;-3.890;2024-01-11T14:01:22;1.20;;;1.20;;
25435;SDS011;13363;52.772;-3.890;2024-01-11T14:03:48;1.17;;;1.13;;
25435;SDS011;13363;52.772;-3.890;2024-01-11T14:06:14;1.33;;;1.23;;
25435;SDS011;13363;52.772;-3.890;2024-01-11T14:08:40;1.93;;;1.20;;
25435;SDS011;13363;52.772;-3.890;2024-01-11T14:11:06;1.30;;;1.30;;
25435;SDS011;13363;52.772;-3.890;2024-01-11T14:13:33;1.60;;;1.40;;
25435;SDS011;13363;52.772;-3.890;2024-01-11T14:15:59;1.20;;;1.20;;
25435;SDS011;13363;52.772;-3.890;2024-01-11T14:18:26;1.67;;;1.67;;
25435;SDS011;13363;52.772;-3.890;2024-01-11T14:20:52;1.87;;;1.77;;
25435;SDS011;13363;52.772;-3.890;2024-01-11T14:23:19;2.43;;;2.33;;
25435;SDS011;13363;52.772;-3.890;2024-01-11T14:25:45;4.27;;;1.73;;
25435;SDS011;13363;52.772;-3.890;2024-01-11T14:28:12;2.07;;;1.97;;
25435;SDS011;13363;52.772;-3.890;2024-01-11T14:30:38;2.60;;;2.40;;
25435;SDS011;13363;52.772;-3.890;2024-01-11T14:33:04;2.20;;;2.00;;
25435;SDS011;13363;52.772;-3.890;2024-01-11T14:35:31;2.40;;;2.30;;
25435;SDS011;13363;52.772;-3.890;2024-01-11T14:37:58;2.40;;;2.20;;